Flight Track Log - Related Links

Times and Time Zones

All times are in EDT time to prevent confusion due to time zone crossing. See the AAY812 flight status page for this flight to view local times or setup timezone preferences in your user account.

Time Position Orientation Groundspeed Altitude Reporting Facility
EDT Latitude Longitude Course Direction KTS MPH feet Rate Location/Type
Sun 03:04:21 PM 27.9333 -82.7000 41° Northeast 167 192 1,000  Level Tampa TRACON
Sun 03:04:51 PM 27.9500 -82.6833 41° Northeast 171 197 1,800 1,800 Climbing Tampa TRACON
Sun 03:05:51 PM 28.0167 -82.6833 360° North 251 289 3,700 1,211 Climbing Tampa TRACON
Sun 03:06:45 PM 28.0833 -82.7167 336° Northwest 281 323 4,100 1,966 Climbing Tampa TRACON
Sun 03:08:45 PM 28.2250 -82.7278 356° North 276 318 9,400 2,333 Climbing Jacksonville Center
Sun 03:09:45 PM 28.3147 -82.7369 355° North 293 337 11,100 1,650 Climbing Jacksonville Center
Sun 03:10:45 PM 28.4044 -82.7839 335° Northwest 335 386 12,700 2,000 Climbing Jacksonville Center
Sun 03:11:45 PM 28.4839 -82.8761 314° West 359 413 15,100 2,400 Climbing Jacksonville Center
Sun 03:12:45 PM 28.5611 -82.9658 314° West 383 441 17,500 1,950 Climbing Jacksonville Center
Sun 03:13:45 PM 28.6339 -83.0511 314° West 397 457 19,000 1,650 Climbing Jacksonville Center
Sun 03:14:45 PM 28.7194 -83.1458 316° Northwest 420 483 20,800 1,650 Climbing Jacksonville Center
Sun 03:15:45 PM 28.8278 -83.2100 333° Northwest 433 498 22,300 1,500 Climbing Jacksonville Center
Sun 03:16:45 PM 28.9508 -83.2389 348° North 433 498 23,800 1,450 Climbing Jacksonville Center
Sun 03:17:45 PM 29.0822 -83.2536 354° North 443 510 25,200 1,500 Climbing Jacksonville Center
Sun 03:18:45 PM 29.2075 -83.2708 353° North 455 524 26,800 1,400 Climbing Jacksonville Center
Sun 03:19:45 PM 29.3347 -83.2856 354° North 455 524 28,000 600 Climbing Jacksonville Center
Sun 03:20:45 PM 29.4558 -83.3006 354° North 450 518 28,000 200 Level Jacksonville Center
Sun 03:21:45 PM 29.5831 -83.3106 356° North 450 518 28,400 750 Climbing Jacksonville Center
Sun 03:22:45 PM 29.7083 -83.3111 360° North 445 512 29,500 800 Climbing Jacksonville Center
Sun 03:23:45 PM 29.8317 -83.3019 North 439 505 30,000 250 Climbing Jacksonville Center
Sun 03:24:45 PM 29.9547 -83.2978 North 439 505 30,000  Level Jacksonville Center
Sun 03:25:45 PM 30.0822 -83.2958 North 439 505 30,000  Level Jacksonville Center
Sun 03:26:45 PM 30.2053 -83.2964 360° North 439 505 30,000  Level Jacksonville Center
Sun 03:27:45 PM 30.3306 -83.2897 North 439 505 30,000 100 Level Jacksonville Center
Sun 03:28:45 PM 30.4581 -83.2997 356° North 444 511 30,200 700 Climbing Jacksonville Center
Sun 03:29:45 PM 30.5789 -83.3292 348° North 444 511 31,400 900 Climbing Jacksonville Center
Sun 03:30:45 PM 30.6978 -83.3589 348° North 444 511 32,000 300 Climbing Jacksonville Center
Sun 03:31:45 PM 30.8272 -83.3908 348° North 438 504 32,000  Level Jacksonville Center
Sun 03:32:45 PM 30.9483 -83.4183 349° North 433 498 32,000  Level Jacksonville Center
Sun 03:33:45 PM 31.0714 -83.4456 349° North 433 498 32,000  Level Jacksonville Center
Sun 03:34:45 PM 31.1922 -83.4681 351° North 433 498 32,000 350 Level Jacksonville Center
Sun 03:35:45 PM 31.3136 -83.4300 15° North 433 498 32,700 500 Climbing Jacksonville Center
Sun 03:36:45 PM 31.4308 -83.3697 24° Northeast 433 498 33,000 91 Climbing Jacksonville Center
Sun 03:39:03 PM 31.6836 -83.2408 23° Northeast 450 518 33,000  Level Atlanta Center
Sun 03:40:03 PM 31.8019 -83.1761 25° Northeast 455 524 33,000  Level Atlanta Center
Sun 03:41:03 PM 31.9186 -83.1189 23° Northeast 455 524 33,000  Level Atlanta Center
Sun 03:42:03 PM 32.0350 -83.0589 24° Northeast 455 524 33,000  Level Atlanta Center
Sun 03:43:03 PM 32.1514 -82.9964 24° Northeast 455 524 33,000  Level Atlanta Center
Sun 03:44:03 PM 32.2697 -82.9408 22° Northeast 455 524 33,000  Level Atlanta Center
Sun 03:45:03 PM 32.3861 -82.8903 20° North 455 524 33,000  Level Atlanta Center
Sun 03:46:03 PM 32.5067 -82.8394 20° North 450 518 33,000  Level Atlanta Center
Sun 03:47:03 PM 32.6336 -82.7808 21° North 445 512 33,000  Level Atlanta Center
Sun 03:48:03 PM 32.7519 -82.7272 21° North 445 512 33,000  Level Atlanta Center
Sun 03:49:03 PM 32.8703 -82.6761 20° North 445 512 33,000  Level Atlanta Center
Sun 03:50:03 PM 32.9908 -82.6222 21° North 450 518 33,000  Level Atlanta Center
Sun 03:51:03 PM 33.1092 -82.5708 20° North 450 518 33,000  Level Atlanta Center
Sun 03:52:03 PM 33.2297 -82.5189 20° North 450 518 33,000  Level Atlanta Center
Sun 03:53:03 PM 33.3500 -82.4647 21° North 450 518 33,000  Level Atlanta Center
Sun 03:54:03 PM 33.4661 -82.4128 20° North 455 524 33,000  Level Atlanta Center
Sun 03:55:03 PM 33.5867 -82.3581 21° North 455 524 33,000  Level Atlanta Center
Sun 03:56:03 PM 33.7111 -82.3058 19° North 455 524 33,000  Level Atlanta Center
Sun 03:57:03 PM 33.8125 -82.2511 24° Northeast 455 524 33,000  Level Atlanta Center
Sun 03:58:03 PM 33.9308 -82.2011 19° North 448 516 33,000  Level Atlanta Center
Sun 03:59:03 PM 34.0469 -82.1483 21° North 448 516 33,000  Level Atlanta Center
Sun 04:00:03 PM 34.1631 -82.0981 20° North 442 509 33,000  Level Atlanta Center
Sun 04:01:03 PM 34.2789 -82.0453 21° North 442 509 33,000 -200 Level Atlanta Center
Sun 04:02:03 PM 34.3992 -81.9894 21° North 448 516 32,600 -700 Descending Atlanta Center
Sun 04:03:03 PM 34.5172 -81.9364 20° North 448 516 31,600 -950 Descending Atlanta Center
Sun 04:04:03 PM 34.6331 -81.8828 21° North 443 510 30,700 -1,000 Descending Atlanta Center
Sun 04:05:03 PM 34.7553 -81.8317 19° North 443 510 29,600 -850 Descending Atlanta Center
Sun 04:06:03 PM 34.8711 -81.7781 21° North 443 510 29,000 -300 Descending Atlanta Center
Sun 04:07:03 PM 34.9892 -81.7214 21° North 443 510 29,000  Level Atlanta Center
Sun 04:08:03 PM 35.1069 -81.6700 20° North 448 516 29,000  Level Atlanta Center
Sun 04:09:03 PM 35.2186 -81.6133 23° Northeast 438 504 29,000  Level Atlanta Center
Sun 04:10:03 PM 35.3364 -81.5589 21° North 438 504 29,000  Level Atlanta Center
Sun 04:11:03 PM 35.4542 -81.5044 21° North 444 511 29,000  Level Atlanta Center
Sun 04:12:03 PM 35.5700 -81.4497 21° North 444 511 29,000  Level Atlanta Center
Sun 04:13:03 PM 35.6939 -81.3922 21° North 450 518 29,000  Level Atlanta Center
Sun 04:14:03 PM 35.8197 -81.3319 21° North 450 518 29,000  Level Atlanta Center
Sun 04:15:03 PM 35.9375 -81.2739 22° Northeast 445 512 29,000 -1,000 Level Atlanta Center
Sun 04:16:03 PM 36.0531 -81.2161 22° Northeast 445 512 27,000 -2,050 Descending Atlanta Center
Sun 04:17:03 PM 36.1706 -81.1606 21° North 445 512 24,900 -2,000 Descending Atlanta Center
Sun 04:18:03 PM 36.2756 -81.1078 22° Northeast 432 497 23,000 -1,250 Descending Atlanta Center
Sun 04:19:03 PM 36.3828 -81.0550 22° Northeast 421 484 22,400 -1,150 Descending Atlanta Center
Sun 04:20:03 PM 36.4919 -81.0019 21° North 416 479 20,700 -2,050 Descending Atlanta Center
Sun 04:21:03 PM 36.5928 -80.9411 26° Northeast 411 473 18,300 -2,500 Descending Atlanta Center
Sun 04:22:03 PM 36.6694 -80.8425 46° Northeast 393 452 15,700 -2,800 Descending Atlanta Center
Sun 04:23:03 PM 36.7378 -80.7489 48° Northeast 379 436 12,700 -2,650 Descending Atlanta Center
Sun 04:24:03 PM 36.7961 -80.6714 47° Northeast 359 413 10,400 -1,089 Descending Atlanta Center
Sun 04:27:00 PM 36.9683 -80.4714 67° East 279 321 8,400 -746 Descending Washington Center
Sun 04:31:01 PM 37.1817 -80.3025 58° Northeast 239 275 5,200 -723 Descending Washington Center
Sun 04:35:01 PM 37.2864 -80.0714 60° Northeast 167 192 2,600 -650 Descending Washington Center
Sun 04:36:00 PM 37.3167 -79.9667 58° Northeast  Level FlightAware Approximate

Login

Don't have an account? Register now (free) for customized features, flight alerts, and more!